Terminal Aerodrome Forecast
Issued by NWS Cleveland, OH

Home | Current Version | Previous Version | Text Only | Print | Product List | Glossary Off
Versions: 1 2 3 4 5 6 7 8 9 10 11 12 13 14 15 16

000
FTUS41 KCLE 040541
TAFTOL
TAF
KTOL 040541Z 0406/0506 20006KT P6SM BKN080
     FM041500 22010KT 6SM -SHRA OVC050
     FM041700 24010KT 5SM -SHRA OVC025
     FM041900 28008KT 3SM -SHRA BR OVC012
     FM042200 34010KT 5SM BR SCT008 OVC012
     FM050300 34006KT P6SM OVC008=

USA.gov is the U.S. government's official web portal to all federal, state and local government web resources and services.